createdAt,value
2018-05-29T00:02:26.018Z,23.50
2018-05-29T00:05:00.638Z,23.50
2018-05-29T00:07:35.961Z,23.40
2018-05-29T00:10:05.268Z,23.40
2018-05-29T00:12:40.686Z,23.40
2018-05-29T00:15:15.351Z,23.40
2018-05-29T00:17:50.071Z,23.40
2018-05-29T00:20:24.609Z,23.40
2018-05-29T00:22:59.272Z,23.40
2018-05-29T00:25:33.836Z,23.30
2018-05-29T00:28:08.419Z,23.30
2018-05-29T00:30:43.008Z,23.30
2018-05-29T00:33:12.959Z,23.20
2018-05-29T00:35:47.661Z,23.20
2018-05-29T00:38:23.229Z,23.20
2018-05-29T00:40:57.807Z,23.20
2018-05-29T00:43:32.521Z,23.10
2018-05-29T00:46:07.168Z,23.10
2018-05-29T00:48:41.815Z,23.10
2018-05-29T00:51:16.431Z,23.10
2018-05-29T00:54:02.040Z,23.00
2018-05-29T00:56:37.109Z,23.00
2018-05-29T00:59:06.288Z,23.00
2018-05-29T01:01:41.021Z,23.00
2018-05-29T01:04:15.584Z,22.90
2018-05-29T01:06:50.975Z,22.90
2018-05-29T01:09:26.293Z,22.80
2018-05-29T01:12:01.652Z,22.90
2018-05-29T01:14:36.281Z,22.80
2018-05-29T01:17:10.933Z,22.80
2018-05-29T01:19:45.485Z,22.80
2018-05-29T01:25:17.274Z,22.70
2018-05-29T01:27:52.556Z,22.50
2018-05-29T01:30:27.147Z,22.50
2018-05-29T01:33:01.778Z,22.50
2018-05-29T01:35:37.223Z,22.50
2018-05-29T01:38:06.397Z,22.40
2018-05-29T01:40:41.049Z,22.40
2018-05-29T01:43:15.597Z,22.40
2018-05-29T01:45:50.247Z,22.40
2018-05-29T01:48:24.985Z,22.40
2018-05-29T01:51:00.356Z,22.30
2018-05-29T01:53:31.503Z,22.30
2018-05-29T01:56:05.738Z,22.30
2018-05-29T01:58:41.420Z,22.30
2018-05-29T02:01:16.899Z,22.20
2018-05-29T02:03:46.399Z,22.20
2018-05-29T02:06:21.101Z,22.20
2018-05-29T02:08:55.681Z,22.20
2018-05-29T02:11:30.594Z,22.30
2018-05-29T02:13:59.742Z,22.10
2018-05-29T02:16:34.522Z,22.10
2018-05-29T02:19:09.148Z,22.10
2018-05-29T02:21:43.891Z,22.10
2018-05-29T02:24:18.628Z,22.00
2018-05-29T02:26:53.264Z,22.00
2018-05-29T02:29:27.862Z,22.00
2018-05-29T02:32:02.493Z,22.00
2018-05-29T02:34:37.086Z,22.00
2018-05-29T02:37:11.724Z,22.00
2018-05-29T02:39:46.381Z,21.90
2018-05-29T02:42:21.019Z,22.00
2018-05-29T02:44:55.276Z,21.90
2018-05-29T02:47:29.967Z,21.90
2018-05-29T02:50:05.291Z,21.90
2018-05-29T02:52:39.999Z,21.90
2018-05-29T02:55:15.535Z,21.90
2018-05-29T02:57:50.142Z,21.80
2018-05-29T03:00:24.683Z,21.80
2018-05-29T03:02:59.332Z,21.80
2018-05-29T03:05:34.363Z,21.80
2018-05-29T03:08:09.779Z,21.70
2018-05-29T03:10:44.542Z,21.70
2018-05-29T03:13:19.163Z,21.70
2018-05-29T03:15:53.815Z,21.70
2018-05-29T03:18:28.040Z,21.70
2018-05-29T03:21:02.731Z,21.70
2018-05-29T03:23:37.219Z,21.70
2018-05-29T03:26:12.575Z,21.70
2018-05-29T03:28:47.907Z,21.60
2018-05-29T03:31:17.822Z,21.60
2018-05-29T03:33:52.451Z,21.60
2018-05-29T03:36:27.033Z,21.60
2018-05-29T03:39:01.571Z,21.60
2018-05-29T03:41:36.335Z,21.50
2018-05-29T03:44:11.095Z,21.60
2018-05-29T03:46:45.772Z,21.50
2018-05-29T03:49:21.115Z,21.50
2018-05-29T03:51:55.692Z,21.50
2018-05-29T03:54:30.313Z,21.50
2018-05-29T03:57:04.561Z,21.40
2018-05-29T03:59:39.625Z,21.50
2018-05-29T04:02:14.325Z,21.50
2018-05-29T04:04:49.712Z,21.50
2018-05-29T04:07:24.349Z,21.50
2018-05-29T04:09:58.995Z,21.50
2018-05-29T04:12:34.623Z,21.50
2018-05-29T04:15:09.347Z,21.50
2018-05-29T04:17:44.099Z,21.60
2018-05-29T04:20:19.723Z,21.60
2018-05-29T04:22:54.205Z,21.60
2018-05-29T04:25:28.745Z,21.60
2018-05-29T04:27:58.558Z,21.70
2018-05-29T04:30:34.093Z,21.70
2018-05-29T04:33:08.708Z,21.70
2018-05-29T04:35:43.468Z,21.70
2018-05-29T04:38:12.696Z,21.70
2018-05-29T04:40:47.381Z,21.70
2018-05-29T04:43:21.959Z,21.70
2018-05-29T04:45:56.502Z,21.80
2018-05-29T04:48:31.276Z,21.80
2018-05-29T04:51:05.859Z,21.80
2018-05-29T04:53:41.285Z,21.80
2018-05-29T04:56:16.086Z,21.80
2018-05-29T04:58:48.502Z,22.00
2018-05-29T05:01:23.209Z,22.00
2018-05-29T05:04:02.370Z,22.10
2018-05-29T05:06:36.967Z,22.00
2018-05-29T05:09:12.724Z,22.10
2018-05-29T05:11:47.411Z,22.10
2018-05-29T05:14:22.561Z,22.10
2018-05-29T05:16:57.100Z,22.10
2018-05-29T05:19:31.831Z,22.10
2018-05-29T05:22:06.655Z,22.10
2018-05-29T05:24:41.356Z,22.10
2018-05-29T05:27:16.185Z,22.10
2018-05-29T05:29:50.933Z,22.10
2018-05-29T05:32:20.758Z,22.20
2018-05-29T05:34:49.907Z,22.20
2018-05-29T05:37:19.019Z,22.30
2018-05-29T05:39:48.108Z,22.30
2018-05-29T05:42:17.165Z,22.40
2018-05-29T05:45:08.811Z,22.40
2018-05-29T05:47:37.937Z,22.50
2018-05-29T05:50:07.055Z,22.60
2018-05-29T05:52:37.235Z,22.80
2018-05-29T05:55:11.989Z,22.80
2018-05-29T05:57:46.642Z,22.80
2018-05-29T06:00:21.190Z,22.90
2018-05-29T06:02:56.569Z,23.00
2018-05-29T06:05:26.327Z,23.00
2018-05-29T06:08:01.014Z,23.00
2018-05-29T06:10:35.763Z,23.00
2018-05-29T06:13:10.552Z,23.20
2018-05-29T06:15:45.146Z,23.30
2018-05-29T06:18:20.075Z,23.40
2018-05-29T06:20:54.830Z,23.60
2018-05-29T06:23:30.467Z,23.60
2018-05-29T06:26:05.843Z,23.60
2018-05-29T06:28:38.246Z,23.60
2018-05-29T06:31:08.043Z,23.70
2018-05-29T06:33:37.459Z,23.60
2018-05-29T06:36:07.172Z,23.60
2018-05-29T06:38:37.734Z,23.70
2018-05-29T06:41:07.715Z,23.70
2018-05-29T06:43:36.901Z,23.70
2018-05-29T06:46:11.540Z,23.80
2018-05-29T06:48:46.185Z,23.80
2018-05-29T06:51:21.485Z,23.80
2018-05-29T06:53:56.058Z,23.90
2018-05-29T06:56:25.388Z,23.90
2018-05-29T06:58:55.814Z,23.90
2018-05-29T07:01:24.905Z,24.00
2018-05-29T07:03:54.229Z,24.00
2018-05-29T07:06:23.355Z,24.10
2018-05-29T07:08:52.597Z,24.10
2018-05-29T07:11:21.639Z,24.20
2018-05-29T07:13:51.533Z,24.30
2018-05-29T07:16:27.314Z,24.40
2018-05-29T07:19:01.952Z,24.30
2018-05-29T07:21:36.557Z,24.40
2018-05-29T07:24:10.931Z,24.50
2018-05-29T07:26:45.658Z,24.50
2018-05-29T07:29:20.304Z,24.60
2018-05-29T07:31:55.367Z,24.70
2018-05-29T07:34:30.137Z,24.70
2018-05-29T07:37:05.652Z,24.80
2018-05-29T07:39:40.447Z,24.80
2018-05-29T07:42:15.357Z,24.80
2018-05-29T07:44:49.878Z,24.80
2018-05-29T07:47:24.657Z,24.90
2018-05-29T07:50:00.195Z,25.00
2018-05-29T07:52:34.867Z,24.90
2018-05-29T07:55:09.425Z,25.00
2018-05-29T07:57:44.297Z,25.00
2018-05-29T08:00:18.979Z,25.00
2018-05-29T08:02:53.944Z,25.00
2018-05-29T08:05:29.364Z,25.10
2018-05-29T08:08:04.277Z,25.10
2018-05-29T08:10:39.857Z,25.10
2018-05-29T08:13:15.545Z,25.20
2018-05-29T08:15:50.312Z,25.10
2018-05-29T08:18:28.772Z,25.20
2018-05-29T08:21:03.366Z,25.20
2018-05-29T08:23:38.116Z,25.20
2018-05-29T08:26:13.639Z,25.40
2018-05-29T08:28:48.351Z,25.40
2018-05-29T08:31:23.059Z,25.50
2018-05-29T08:33:57.888Z,25.50
2018-05-29T08:36:33.537Z,25.60
2018-05-29T08:39:09.179Z,25.60
2018-05-29T08:41:44.560Z,25.60
2018-05-29T08:44:19.288Z,25.60
2018-05-29T08:46:54.761Z,25.70
2018-05-29T08:49:29.763Z,25.60
2018-05-29T08:52:03.659Z,25.70
2018-05-29T08:54:38.435Z,25.70
2018-05-29T08:57:13.112Z,25.80
2018-05-29T08:59:47.672Z,25.80
2018-05-29T09:02:22.347Z,25.90
2018-05-29T09:04:56.995Z,26.00
2018-05-29T09:07:31.850Z,26.10
2018-05-29T09:10:06.461Z,26.20
2018-05-29T09:12:40.999Z,26.10
2018-05-29T09:15:19.284Z,26.20
2018-05-29T09:17:54.169Z,26.20
2018-05-29T09:20:28.676Z,26.20
2018-05-29T09:23:03.263Z,26.20
2018-05-29T09:25:37.925Z,26.30
2018-05-29T09:28:12.541Z,26.40
2018-05-29T09:30:47.201Z,26.40
2018-05-29T09:33:21.977Z,26.50
2018-05-29T09:35:56.622Z,26.60
2018-05-29T09:38:31.249Z,26.70
2018-05-29T09:41:05.959Z,26.80
2018-05-29T09:43:40.537Z,26.80
2018-05-29T09:46:15.260Z,26.90
2018-05-29T09:48:50.181Z,26.90
2018-05-29T09:51:22.789Z,27.00
2018-05-29T09:53:52.058Z,27.00
2018-05-29T09:56:21.026Z,27.00
2018-05-29T09:58:50.134Z,27.00
2018-05-29T10:01:20.068Z,27.00
2018-05-29T10:03:54.826Z,27.00
2018-05-29T10:06:29.514Z,27.10
2018-05-29T10:09:03.227Z,27.20
2018-05-29T10:11:38.026Z,27.30
2018-05-29T10:14:12.848Z,27.40
2018-05-29T10:16:47.430Z,27.50
2018-05-29T10:19:22.233Z,27.60
2018-05-29T10:21:57.836Z,27.80
2018-05-29T10:24:32.885Z,27.80
2018-05-29T10:27:07.466Z,27.90
2018-05-29T10:29:42.025Z,28.00
2018-05-29T10:32:16.843Z,28.10
2018-05-29T10:34:51.584Z,28.20
2018-05-29T10:37:26.347Z,28.40
2018-05-29T10:40:01.075Z,28.50
2018-05-29T10:42:35.933Z,28.60
2018-05-29T10:45:10.481Z,28.70
2018-05-29T10:47:45.126Z,28.60
2018-05-29T10:50:20.572Z,28.60
2018-05-29T10:52:55.299Z,28.60
2018-05-29T10:55:30.178Z,28.70
2018-05-29T10:58:04.526Z,28.80
2018-05-29T11:00:39.237Z,28.90
2018-05-29T11:03:13.956Z,29.00
2018-05-29T11:05:48.662Z,29.00
2018-05-29T11:08:23.492Z,29.00
2018-05-29T11:10:58.332Z,29.10
2018-05-29T11:13:33.009Z,29.30
2018-05-29T11:16:07.630Z,29.30
2018-05-29T11:18:42.929Z,29.40
2018-05-29T11:21:17.758Z,29.40
2018-05-29T11:23:53.216Z,29.40
2018-05-29T11:26:27.990Z,29.50
2018-05-29T11:29:03.291Z,29.50
2018-05-29T11:31:38.711Z,29.60
2018-05-29T11:34:14.048Z,29.70
2018-05-29T11:36:48.724Z,29.70
2018-05-29T11:39:23.894Z,29.60
2018-05-29T11:41:58.469Z,29.60
2018-05-29T11:44:34.497Z,29.70
2018-05-29T11:47:09.111Z,29.70
2018-05-29T11:49:44.615Z,29.80
2018-05-29T11:52:19.779Z,29.80
2018-05-29T11:54:55.019Z,29.80
2018-05-29T11:57:29.764Z,29.80
2018-05-29T12:00:04.568Z,29.80
2018-05-29T12:02:39.296Z,29.80
2018-05-29T12:05:15.336Z,30.00
2018-05-29T12:07:50.140Z,30.00
2018-05-29T12:10:25.482Z,30.10
2018-05-29T12:13:00.663Z,30.30
2018-05-29T12:15:35.256Z,30.50
2018-05-29T12:18:11.199Z,30.70
2018-05-29T12:20:46.799Z,30.70
2018-05-29T12:23:21.958Z,30.80
2018-05-29T12:25:57.105Z,30.80
2018-05-29T12:28:32.245Z,30.80
2018-05-29T12:31:06.622Z,30.70
2018-05-29T12:33:41.923Z,30.60
2018-05-29T12:36:17.421Z,30.50
2018-05-29T12:38:52.783Z,30.50
2018-05-29T12:41:27.956Z,30.40
2018-05-29T12:44:03.150Z,30.50
2018-05-29T12:46:38.496Z,30.40
2018-05-29T12:49:13.294Z,30.40
2018-05-29T12:51:48.497Z,30.40
2018-05-29T12:54:23.875Z,30.40
2018-05-29T12:56:58.461Z,30.40
2018-05-29T12:59:34.464Z,30.40
2018-05-29T13:02:09.013Z,30.30
2018-05-29T13:04:44.276Z,30.40
2018-05-29T13:07:18.878Z,30.50
2018-05-29T13:09:54.188Z,30.50
2018-05-29T13:12:29.422Z,30.50
2018-05-29T13:15:05.124Z,30.50
2018-05-29T13:17:40.383Z,30.50
2018-05-29T13:20:15.891Z,30.50
2018-05-29T13:22:51.236Z,30.40
2018-05-29T13:25:26.483Z,30.40
2018-05-29T13:28:01.689Z,30.30
2018-05-29T13:30:37.820Z,30.20
2018-05-29T13:33:12.983Z,30.20
2018-05-29T13:35:48.236Z,30.30
2018-05-29T13:38:23.498Z,30.20
2018-05-29T13:40:58.882Z,30.20
2018-05-29T13:43:33.476Z,30.10
2018-05-29T13:46:08.136Z,30.00
2018-05-29T13:48:42.851Z,30.00
2018-05-29T13:51:18.102Z,29.90
2018-05-29T13:53:54.017Z,29.90
2018-05-29T13:56:28.703Z,29.70
2018-05-29T13:59:04.578Z,29.60
2018-05-29T14:01:39.980Z,29.70
2018-05-29T14:04:15.703Z,29.60
2018-05-29T14:06:50.274Z,29.60
2018-05-29T14:09:24.983Z,29.60
2018-05-29T14:12:01.251Z,29.60
2018-05-29T14:14:35.839Z,29.50
2018-05-29T14:17:10.527Z,29.40
2018-05-29T14:19:45.066Z,29.40
2018-05-29T14:22:21.060Z,29.30
2018-05-29T14:24:56.488Z,28.60
2018-05-29T14:27:33.006Z,28.20
2018-05-29T14:30:08.704Z,27.90
2018-05-29T14:32:43.442Z,27.90
2018-05-29T14:35:18.100Z,27.70
2018-05-29T14:37:52.686Z,27.50
2018-05-29T14:40:27.341Z,27.20
2018-05-29T14:43:01.950Z,27.00
2018-05-29T14:45:36.743Z,27.00
2018-05-29T14:48:11.436Z,26.90
2018-05-29T14:50:46.130Z,26.70
2018-05-29T14:53:20.923Z,26.60
2018-05-29T14:55:55.707Z,26.40
2018-05-29T14:58:30.364Z,26.20
2018-05-29T15:01:05.005Z,25.90
2018-05-29T15:03:44.812Z,25.70
2018-05-29T15:06:20.374Z,25.40
2018-05-29T15:08:56.122Z,25.40
2018-05-29T15:11:30.830Z,25.40
2018-05-29T15:14:05.498Z,25.30
2018-05-29T15:16:40.195Z,25.30
2018-05-29T15:19:14.960Z,25.30
2018-05-29T15:21:49.593Z,25.20
2018-05-29T15:24:25.009Z,25.20
2018-05-29T15:27:01.142Z,24.60
2018-05-29T15:29:35.384Z,24.60
2018-05-29T15:32:10.140Z,24.00
2018-05-29T15:34:45.506Z,22.60
2018-05-29T15:37:20.138Z,22.60
2018-05-29T15:39:55.445Z,21.90
2018-05-29T15:42:30.150Z,21.90
2018-05-29T15:45:04.501Z,21.70
2018-05-29T15:47:39.437Z,21.40
2018-05-29T15:50:14.042Z,21.10
2018-05-29T15:52:48.710Z,20.90
2018-05-29T15:55:23.345Z,20.60
2018-05-29T15:57:58.060Z,20.10
2018-05-29T16:00:32.703Z,19.80
2018-05-29T16:03:08.114Z,19.60
2018-05-29T16:05:42.820Z,19.50
2018-05-29T16:08:17.550Z,19.60
2018-05-29T16:10:52.198Z,19.70
2018-05-29T16:13:26.813Z,19.80
2018-05-29T16:16:01.456Z,20.00
2018-05-29T16:18:36.032Z,20.10
2018-05-29T16:21:10.659Z,19.90
2018-05-29T16:23:45.194Z,19.80
2018-05-29T16:26:19.815Z,19.70
2018-05-29T16:28:54.426Z,19.70
2018-05-29T16:31:28.736Z,19.80
2018-05-29T16:34:03.208Z,19.90
2018-05-29T16:36:37.873Z,20.10
2018-05-29T16:39:13.325Z,20.40
2018-05-29T16:41:48.724Z,20.40
2018-05-29T16:44:23.501Z,20.40
2018-05-29T16:46:58.233Z,20.40
2018-05-29T16:49:33.093Z,20.30
2018-05-29T16:52:07.879Z,20.30
2018-05-29T16:54:42.550Z,20.40
2018-05-29T16:57:17.168Z,20.40
2018-05-29T16:59:51.719Z,20.30
2018-05-29T17:02:27.270Z,20.40
2018-05-29T17:05:01.828Z,20.40
2018-05-29T17:07:36.468Z,20.40
2018-05-29T17:10:11.211Z,20.50
2018-05-29T17:12:45.986Z,20.60
2018-05-29T17:15:20.774Z,20.70
2018-05-29T17:17:55.688Z,20.80
2018-05-29T17:20:30.472Z,20.80
2018-05-29T17:23:06.550Z,20.90
2018-05-29T17:25:41.342Z,20.90
2018-05-29T17:28:23.240Z,20.90
2018-05-29T17:30:57.963Z,20.90
2018-05-29T17:33:27.215Z,20.90
2018-05-29T17:36:02.814Z,20.70
2018-05-29T17:38:38.259Z,20.70
2018-05-29T17:41:12.898Z,20.70
2018-05-29T17:43:47.529Z,20.70
2018-05-29T17:46:22.071Z,20.70
2018-05-29T17:48:57.021Z,20.80
2018-05-29T17:51:31.985Z,20.70
2018-05-29T17:54:07.018Z,20.80
2018-05-29T17:56:42.069Z,20.70
2018-05-29T17:59:17.832Z,20.70
2018-05-29T18:01:52.556Z,20.70
2018-05-29T18:04:27.736Z,20.60
2018-05-29T18:07:02.863Z,20.60
2018-05-29T18:09:37.836Z,20.70
2018-05-29T18:12:12.769Z,20.60
2018-05-29T18:14:47.556Z,20.60
2018-05-29T18:17:22.431Z,20.60
2018-05-29T18:19:57.379Z,20.60
2018-05-29T18:22:32.403Z,20.60
2018-05-29T18:25:07.528Z,20.60
2018-05-29T18:27:42.563Z,20.60
2018-05-29T18:30:17.229Z,20.60
2018-05-29T18:32:52.146Z,20.70
2018-05-29T18:35:26.893Z,20.70
2018-05-29T18:38:01.569Z,20.70
2018-05-29T18:40:36.640Z,20.80
2018-05-29T18:43:11.257Z,20.80
2018-05-29T18:45:45.991Z,20.80
2018-05-29T18:48:20.617Z,20.90
2018-05-29T18:50:55.222Z,20.90
2018-05-29T18:53:29.844Z,20.80
2018-05-29T18:55:59.622Z,20.80
2018-05-29T18:58:28.744Z,20.80
2018-05-29T19:00:57.944Z,20.90
2018-05-29T19:03:27.209Z,20.90
2018-05-29T19:05:56.707Z,20.90
2018-05-29T19:08:26.504Z,21.00
2018-05-29T19:10:56.442Z,21.00
2018-05-29T19:13:25.573Z,21.00
2018-05-29T19:15:54.575Z,21.00
2018-05-29T19:18:24.599Z,21.00
2018-05-29T19:20:53.887Z,21.00
2018-05-29T19:23:23.348Z,21.00
2018-05-29T19:25:53.096Z,21.10
2018-05-29T19:28:23.137Z,21.10
2018-05-29T19:30:52.325Z,21.10
2018-05-29T19:33:21.643Z,21.10
2018-05-29T19:35:51.767Z,21.00
2018-05-29T19:38:21.507Z,21.00
2018-05-29T19:40:51.506Z,21.00
2018-05-29T19:43:26.268Z,20.90
2018-05-29T19:46:01.229Z,20.90
2018-05-29T19:48:36.784Z,20.80
2018-05-29T19:51:12.350Z,20.80
2018-05-29T19:53:47.255Z,20.70
2018-05-29T19:56:22.027Z,20.70
2018-05-29T19:58:56.811Z,20.70
2018-05-29T20:01:31.473Z,20.70
2018-05-29T20:04:06.561Z,20.70
2018-05-29T20:06:41.192Z,20.70
2018-05-29T20:09:15.890Z,20.80
2018-05-29T20:11:50.510Z,20.80
2018-05-29T20:14:21.239Z,20.80
2018-05-29T20:16:55.934Z,20.80
2018-05-29T20:19:30.622Z,20.70
2018-05-29T20:22:06.087Z,20.80
2018-05-29T20:24:40.789Z,20.80
2018-05-29T20:27:15.431Z,20.90
2018-05-29T20:29:50.640Z,20.90
2018-05-29T20:32:26.141Z,20.80
2018-05-29T20:35:01.007Z,20.80
2018-05-29T20:37:35.750Z,20.80
2018-05-29T20:40:11.197Z,20.70
2018-05-29T20:42:40.233Z,20.60
2018-05-29T20:45:15.196Z,20.70
2018-05-29T20:47:49.822Z,20.60
2018-05-29T20:50:24.410Z,20.70
2018-05-29T20:53:00.548Z,20.70
2018-05-29T20:55:35.320Z,20.70
2018-05-29T20:58:09.953Z,20.70
2018-05-29T21:00:44.354Z,20.60
2018-05-29T21:03:18.953Z,20.60
2018-05-29T21:05:53.488Z,20.50
2018-05-29T21:08:28.225Z,20.50
2018-05-29T21:11:02.999Z,20.50
2018-05-29T21:13:37.949Z,20.50
2018-05-29T21:16:12.551Z,20.50
2018-05-29T21:18:50.123Z,20.50
2018-05-29T21:21:24.808Z,20.60
2018-05-29T21:23:59.616Z,20.60
2018-05-29T21:26:30.217Z,20.60
2018-05-29T21:29:04.974Z,20.60
2018-05-29T21:31:39.575Z,20.60
2018-05-29T21:34:14.330Z,20.50
2018-05-29T21:36:49.144Z,20.50
2018-05-29T21:39:23.882Z,20.40
2018-05-29T21:41:58.471Z,20.50
2018-05-29T21:44:33.089Z,20.50
2018-05-29T21:47:07.814Z,20.50
2018-05-29T21:49:42.561Z,20.50
2018-05-29T21:52:18.151Z,20.50
2018-05-29T21:54:52.830Z,20.50
2018-05-29T21:57:27.427Z,20.60
2018-05-29T22:00:02.083Z,20.60
2018-05-29T22:02:36.880Z,20.60
2018-05-29T22:05:11.570Z,20.60
2018-05-29T22:07:46.177Z,20.60
2018-05-29T22:10:20.914Z,20.60
2018-05-29T22:12:55.183Z,20.60
2018-05-29T22:15:30.660Z,20.60
2018-05-29T22:18:04.918Z,20.60
2018-05-29T22:20:39.694Z,20.60
2018-05-29T22:23:14.193Z,20.60
2018-05-29T22:25:48.947Z,20.60
2018-05-29T22:28:23.693Z,20.60
2018-05-29T22:30:59.090Z,20.50
2018-05-29T22:33:33.832Z,20.50
2018-05-29T22:36:08.491Z,20.50
2018-05-29T22:38:43.891Z,20.40
2018-05-29T22:41:18.655Z,20.40
2018-05-29T22:43:53.370Z,20.40
2018-05-29T22:46:27.928Z,20.40
2018-05-29T22:49:02.597Z,20.40
2018-05-29T22:51:37.316Z,20.30
2018-05-29T22:54:12.861Z,20.30
2018-05-29T22:56:48.373Z,20.30
2018-05-29T22:59:22.938Z,20.30
2018-05-29T23:01:57.756Z,20.30
2018-05-29T23:04:32.273Z,20.30
2018-05-29T23:07:07.053Z,20.20
2018-05-29T23:09:42.881Z,20.20
2018-05-29T23:12:17.472Z,20.20
2018-05-29T23:14:52.833Z,20.30
2018-05-29T23:17:22.789Z,20.30
2018-05-29T23:19:58.557Z,20.30
2018-05-29T23:22:33.232Z,20.30
2018-05-29T23:25:08.010Z,20.30
2018-05-29T23:27:42.658Z,20.20
2018-05-29T23:30:18.022Z,20.20
2018-05-29T23:32:52.722Z,20.20
2018-05-29T23:35:27.471Z,20.30
2018-05-29T23:38:02.135Z,20.30
2018-05-29T23:40:34.063Z,20.40
2018-05-29T23:43:08.921Z,20.40
2018-05-29T23:45:43.536Z,20.30
2018-05-29T23:48:18.144Z,20.30
2018-05-29T23:50:52.758Z,20.30
2018-05-29T23:53:27.416Z,20.20
2018-05-29T23:56:02.109Z,20.20
2018-05-29T23:58:36.664Z,20.20
